sensor_id;sensor_type;location;lat;lon;timestamp;pressure;altitude;pressure_sealevel;temperature;humidity
23166;BME280;11751;42.700;24.170;2023-09-19T00:02:01;94450.25;;;14.53;nan
23166;BME280;11751;42.700;24.170;2023-09-19T00:04:31;94445.94;;;14.52;nan
23166;BME280;11751;42.700;24.170;2023-09-19T00:06:58;94443.22;;;14.37;nan
23166;BME280;11751;42.700;24.170;2023-09-19T00:09:23;94438.66;;;14.10;nan
23166;BME280;11751;42.700;24.170;2023-09-19T00:11:52;94443.78;;;14.11;nan
23166;BME280;11751;42.700;24.170;2023-09-19T00:14:18;94444.28;;;13.78;nan
23166;BME280;11751;42.700;24.170;2023-09-19T00:16:43;94435.63;;;13.83;nan
23166;BME280;11751;42.700;24.170;2023-09-19T00:19:08;94441.00;;;13.96;nan
23166;BME280;11751;42.700;24.170;2023-09-19T00:21:34;94438.97;;;13.89;nan
23166;BME280;11751;42.700;24.170;2023-09-19T00:24:04;94444.88;;;14.08;nan
23166;BME280;11751;42.700;24.170;2023-09-19T00:26:32;94433.78;;;14.10;nan
23166;BME280;11751;42.700;24.170;2023-09-19T00:28:57;94446.00;;;14.13;nan
23166;BME280;11751;42.700;24.170;2023-09-19T00:31:29;94441.13;;;14.13;nan
23166;BME280;11751;42.700;24.170;2023-09-19T00:33:55;94437.91;;;14.17;nan
23166;BME280;11751;42.700;24.170;2023-09-19T00:36:25;94444.47;;;14.19;nan
23166;BME280;11751;42.700;24.170;2023-09-19T00:38:50;94442.00;;;14.23;nan
23166;BME280;11751;42.700;24.170;2023-09-19T00:41:16;94448.97;;;14.22;nan
23166;BME280;11751;42.700;24.170;2023-09-19T00:43:41;94448.97;;;14.22;nan
23166;BME280;11751;42.700;24.170;2023-09-19T00:46:06;94436.53;;;14.25;nan
23166;BME280;11751;42.700;24.170;2023-09-19T00:48:40;94437.91;;;14.17;nan
23166;BME280;11751;42.700;24.170;2023-09-19T00:51:06;94430.63;;;14.06;nan
23166;BME280;11751;42.700;24.170;2023-09-19T00:53:32;94435.72;;;14.00;nan
23166;BME280;11751;42.700;24.170;2023-09-19T00:55:59;94431.56;;;14.09;nan
23166;BME280;11751;42.700;24.170;2023-09-19T00:58:25;94432.69;;;14.06;nan
23166;BME280;11751;42.700;24.170;2023-09-19T01:00:51;94425.78;;;13.99;nan
23166;BME280;11751;42.700;24.170;2023-09-19T01:03:18;94435.38;;;13.96;nan
23166;BME280;11751;42.700;24.170;2023-09-19T01:05:44;94419.16;;;13.80;nan
23166;BME280;11751;42.700;24.170;2023-09-19T01:08:09;94419.16;;;13.80;nan
23166;BME280;11751;42.700;24.170;2023-09-19T01:10:48;94429.66;;;13.72;nan
23166;BME280;11751;42.700;24.170;2023-09-19T01:13:29;94431.56;;;13.69;nan
23166;BME280;11751;42.700;24.170;2023-09-19T01:21:27;94427.81;;;13.67;nan
23166;BME280;11751;42.700;24.170;2023-09-19T01:29:47;94437.34;;;13.25;nan
23166;BME280;11751;42.700;24.170;2023-09-19T01:32:18;94426.28;;;13.27;nan
23166;BME280;11751;42.700;24.170;2023-09-19T01:34:53;94435.88;;;13.16;nan
23166;BME280;11751;42.700;24.170;2023-09-19T01:37:20;94420.09;;;13.21;nan
23166;BME280;11751;42.700;24.170;2023-09-19T01:39:59;94421.97;;;13.26;nan
23166;BME280;11751;42.700;24.170;2023-09-19T01:42:48;94420.47;;;13.25;nan
23166;BME280;11751;42.700;24.170;2023-09-19T01:45:33;94417.84;;;13.27;nan
23166;BME280;11751;42.700;24.170;2023-09-19T01:48:23;94415.25;;;13.14;nan
23166;BME280;11751;42.700;24.170;2023-09-19T01:51:06;94414.16;;;13.02;nan
23166;BME280;11751;42.700;24.170;2023-09-19T01:56:08;94426.13;;;13.10;nan
23166;BME280;11751;42.700;24.170;2023-09-19T01:58:41;94426.13;;;13.02;nan
23166;BME280;11751;42.700;24.170;2023-09-19T02:01:12;94429.91;;;12.90;nan
23166;BME280;11751;42.700;24.170;2023-09-19T02:03:40;94426.91;;;12.95;nan
23166;BME280;11751;42.700;24.170;2023-09-19T02:06:06;94415.28;;;12.99;nan
23166;BME280;11751;42.700;24.170;2023-09-19T02:08:36;94418.66;;;13.05;nan
23166;BME280;11751;42.700;24.170;2023-09-19T02:11:02;94424.03;;;13.18;nan
23166;BME280;11751;42.700;24.170;2023-09-19T02:13:28;94425.16;;;13.22;nan
23166;BME280;11751;42.700;24.170;2023-09-19T02:15:54;94420.31;;;13.23;nan
23166;BME280;11751;42.700;24.170;2023-09-19T02:18:19;94408.88;;;13.21;nan
23166;BME280;11751;42.700;24.170;2023-09-19T02:20:45;94417.50;;;13.15;nan
23166;BME280;11751;42.700;24.170;2023-09-19T02:23:12;94404.75;;;13.22;nan
23166;BME280;11751;42.700;24.170;2023-09-19T02:25:38;94406.81;;;13.14;nan
23166;BME280;11751;42.700;24.170;2023-09-19T02:28:05;94415.81;;;13.20;nan
23166;BME280;11751;42.700;24.170;2023-09-19T02:30:32;94413.19;;;13.14;nan
23166;BME280;11751;42.700;24.170;2023-09-19T02:32:57;94408.13;;;13.13;nan
23166;BME280;11751;42.700;24.170;2023-09-19T02:35:23;94408.91;;;12.83;nan
23166;BME280;11751;42.700;24.170;2023-09-19T02:37:50;94400.88;;;12.95;nan
23166;BME280;11751;42.700;24.170;2023-09-19T02:40:15;94395.44;;;12.97;nan
23166;BME280;11751;42.700;24.170;2023-09-19T02:42:48;94396.19;;;12.97;nan
23166;BME280;11751;42.700;24.170;2023-09-19T02:45:16;94397.13;;;12.92;nan
23166;BME280;11751;42.700;24.170;2023-09-19T02:47:45;94391.88;;;12.89;nan
23166;BME280;11751;42.700;24.170;2023-09-19T02:50:12;94388.31;;;12.81;nan
23166;BME280;11751;42.700;24.170;2023-09-19T02:52:38;94383.66;;;12.76;nan
23166;BME280;11751;42.700;24.170;2023-09-19T02:55:09;94378.97;;;12.64;nan
23166;BME280;11751;42.700;24.170;2023-09-19T02:57:35;94391.31;;;12.68;nan
23166;BME280;11751;42.700;24.170;2023-09-19T03:00:02;94391.69;;;12.72;nan
23166;BME280;11751;42.700;24.170;2023-09-19T03:02:28;94382.16;;;12.60;nan
23166;BME280;11751;42.700;24.170;2023-09-19T03:04:54;94380.13;;;12.61;nan
23166;BME280;11751;42.700;24.170;2023-09-19T03:07:21;94376.38;;;12.51;nan
23166;BME280;11751;42.700;24.170;2023-09-19T03:09:47;94364.38;;;12.50;nan
23166;BME280;11751;42.700;24.170;2023-09-19T03:12:12;94368.69;;;12.51;nan
23166;BME280;11751;42.700;24.170;2023-09-19T03:14:41;94367.38;;;12.52;nan
23166;BME280;11751;42.700;24.170;2023-09-19T03:17:07;94364.03;;;12.46;nan
23166;BME280;11751;42.700;24.170;2023-09-19T03:19:34;94362.13;;;12.56;nan
23166;BME280;11751;42.700;24.170;2023-09-19T03:21:59;94358.03;;;12.57;nan
23166;BME280;11751;42.700;24.170;2023-09-19T03:24:25;94367.56;;;12.54;nan
23166;BME280;11751;42.700;24.170;2023-09-19T03:26:51;94361.75;;;12.52;nan
23166;BME280;11751;42.700;24.170;2023-09-19T03:29:17;94369.44;;;12.52;nan
23166;BME280;11751;42.700;24.170;2023-09-19T03:31:43;94374.50;;;12.53;nan
23166;BME280;11751;42.700;24.170;2023-09-19T03:34:08;94370.19;;;12.45;nan
23166;BME280;11751;42.700;24.170;2023-09-19T03:36:34;94387.59;;;12.51;nan
23166;BME280;11751;42.700;24.170;2023-09-19T03:39:00;94383.50;;;12.52;nan
23166;BME280;11751;42.700;24.170;2023-09-19T03:41:26;94373.94;;;12.47;nan
23166;BME280;11751;42.700;24.170;2023-09-19T03:43:51;94385.72;;;12.53;nan
23166;BME280;11751;42.700;24.170;2023-09-19T03:46:17;94387.97;;;12.55;nan
23166;BME280;11751;42.700;24.170;2023-09-19T03:48:42;94384.81;;;12.43;nan
23166;BME280;11751;42.700;24.170;2023-09-19T03:51:08;94393.97;;;12.36;nan
23166;BME280;11751;42.700;24.170;2023-09-19T03:53:33;94380.88;;;12.31;nan
23166;BME280;11751;42.700;24.170;2023-09-19T03:55:59;94385.75;;;12.38;nan
23166;BME280;11751;42.700;24.170;2023-09-19T03:58:25;94386.09;;;12.35;nan
23166;BME280;11751;42.700;24.170;2023-09-19T04:00:55;94387.25;;;12.32;nan
23166;BME280;11751;42.700;24.170;2023-09-19T04:03:20;94388.38;;;12.36;nan
23166;BME280;11751;42.700;24.170;2023-09-19T04:05:46;94381.78;;;12.41;nan
23166;BME280;11751;42.700;24.170;2023-09-19T04:08:13;94393.59;;;12.32;nan
23166;BME280;11751;42.700;24.170;2023-09-19T04:10:44;94385.72;;;12.16;nan
23166;BME280;11751;42.700;24.170;2023-09-19T04:13:09;94392.66;;;12.07;nan
23166;BME280;11751;42.700;24.170;2023-09-19T04:15:35;94390.97;;;12.04;nan
23166;BME280;11751;42.700;24.170;2023-09-19T04:18:01;94393.22;;;12.13;nan
23166;BME280;11751;42.700;24.170;2023-09-19T04:20:28;94378.97;;;11.96;nan
23166;BME280;11751;42.700;24.170;2023-09-19T04:22:53;94378.63;;;12.07;nan
23166;BME280;11751;42.700;24.170;2023-09-19T04:25:20;94384.06;;;12.13;nan
23166;BME280;11751;42.700;24.170;2023-09-19T04:27:46;94393.75;;;12.19;nan
23166;BME280;11751;42.700;24.170;2023-09-19T04:30:11;94394.34;;;12.25;nan
23166;BME280;11751;42.700;24.170;2023-09-19T04:32:40;94391.91;;;12.29;nan
23166;BME280;11751;42.700;24.170;2023-09-19T04:35:10;94397.34;;;12.42;nan
23166;BME280;11751;42.700;24.170;2023-09-19T04:37:40;94393.41;;;12.45;nan
23166;BME280;11751;42.700;24.170;2023-09-19T04:40:09;94390.59;;;12.53;nan
23166;BME280;11751;42.700;24.170;2023-09-19T04:42:39;94398.47;;;12.62;nan
23166;BME280;11751;42.700;24.170;2023-09-19T04:45:04;94396.19;;;12.75;nan
23166;BME280;11751;42.700;24.170;2023-09-19T04:47:30;94391.69;;;12.87;nan
23166;BME280;11751;42.700;24.170;2023-09-19T04:49:55;94391.69;;;12.94;nan
23166;BME280;11751;42.700;24.170;2023-09-19T04:52:23;94398.06;;;12.95;nan
23166;BME280;11751;42.700;24.170;2023-09-19T04:54:48;94394.16;;;12.90;nan
23166;BME280;11751;42.700;24.170;2023-09-19T04:57:14;94393.94;;;12.96;nan
23166;BME280;11751;42.700;24.170;2023-09-19T04:59:40;94392.06;;;13.06;nan
23166;BME280;11751;42.700;24.170;2023-09-19T05:02:06;94398.75;;;13.18;nan
23166;BME280;11751;42.700;24.170;2023-09-19T05:04:33;94392.00;;;13.21;nan
23166;BME280;11751;42.700;24.170;2023-09-19T05:06:59;94389.00;;;13.19;nan
23166;BME280;11751;42.700;24.170;2023-09-19T05:09:26;94395.38;;;13.19;nan
23166;BME280;11751;42.700;24.170;2023-09-19T05:11:51;94400.53;;;13.38;nan
23166;BME280;11751;42.700;24.170;2023-09-19T05:14:18;94403.66;;;13.57;nan
23166;BME280;11751;42.700;24.170;2023-09-19T05:16:44;94407.72;;;13.70;nan
23166;BME280;11751;42.700;24.170;2023-09-19T05:19:09;94392.97;;;13.63;nan
23166;BME280;11751;42.700;24.170;2023-09-19T05:21:37;94391.00;;;13.80;nan
23166;BME280;11751;42.700;24.170;2023-09-19T05:24:05;94382.28;;;13.93;nan
23166;BME280;11751;42.700;24.170;2023-09-19T05:26:32;94384.69;;;13.96;nan
23166;BME280;11751;42.700;24.170;2023-09-19T05:28:57;94377.28;;;14.08;nan
23166;BME280;11751;42.700;24.170;2023-09-19T05:31:23;94385.53;;;14.14;nan
23166;BME280;11751;42.700;24.170;2023-09-19T05:33:49;94378.38;;;14.20;nan
23166;BME280;11751;42.700;24.170;2023-09-19T05:36:15;94381.78;;;14.19;nan
23166;BME280;11751;42.700;24.170;2023-09-19T05:38:42;94376.59;;;14.32;nan
23166;BME280;11751;42.700;24.170;2023-09-19T05:41:08;94370.78;;;14.30;nan
23166;BME280;11751;42.700;24.170;2023-09-19T05:43:35;94373.69;;;14.40;nan
23166;BME280;11751;42.700;24.170;2023-09-19T05:46:03;94377.13;;;14.55;nan
23166;BME280;11751;42.700;24.170;2023-09-19T05:48:28;94371.22;;;14.68;nan
23166;BME280;11751;42.700;24.170;2023-09-19T05:50:54;94376.03;;;14.75;nan
23166;BME280;11751;42.700;24.170;2023-09-19T05:53:20;94378.84;;;14.75;nan
23166;BME280;11751;42.700;24.170;2023-09-19T05:55:45;94378.00;;;14.65;nan
23166;BME280;11751;42.700;24.170;2023-09-19T05:58:11;94373.69;;;14.64;nan
23166;BME280;11751;42.700;24.170;2023-09-19T06:00:39;94374.38;;;14.72;nan
23166;BME280;11751;42.700;24.170;2023-09-19T06:03:07;94369.00;;;15.00;nan
23166;BME280;11751;42.700;24.170;2023-09-19T06:05:33;94370.56;;;14.77;nan
23166;BME280;11751;42.700;24.170;2023-09-19T06:07:58;94377.03;;;14.87;nan
23166;BME280;11751;42.700;24.170;2023-09-19T06:10:35;94365.09;;;15.13;nan
23166;BME280;11751;42.700;24.170;2023-09-19T06:13:04;94362.66;;;15.34;nan
23166;BME280;11751;42.700;24.170;2023-09-19T06:15:30;94360.47;;;15.58;nan
23166;BME280;11751;42.700;24.170;2023-09-19T06:17:58;94366.16;;;15.85;nan
23166;BME280;11751;42.700;24.170;2023-09-19T06:20:28;94348.53;;;15.77;nan
23166;BME280;11751;42.700;24.170;2023-09-19T06:22:54;94362.72;;;16.13;nan
23166;BME280;11751;42.700;24.170;2023-09-19T06:25:19;94361.69;;;16.08;nan
23166;BME280;11751;42.700;24.170;2023-09-19T06:27:49;94353.31;;;16.01;nan
23166;BME280;11751;42.700;24.170;2023-09-19T06:30:17;94354.28;;;16.22;nan
23166;BME280;11751;42.700;24.170;2023-09-19T06:32:43;94344.78;;;16.53;nan
23166;BME280;11751;42.700;24.170;2023-09-19T06:35:12;94340.97;;;16.68;nan
23166;BME280;11751;42.700;24.170;2023-09-19T06:37:38;94340.84;;;16.85;nan
23166;BME280;11751;42.700;24.170;2023-09-19T06:40:08;94345.16;;;16.95;nan
23166;BME280;11751;42.700;24.170;2023-09-19T06:42:44;94345.66;;;17.20;nan
23166;BME280;11751;42.700;24.170;2023-09-19T06:45:11;94336.91;;;17.35;nan
23166;BME280;11751;42.700;24.170;2023-09-19T06:47:38;94333.44;;;17.27;nan
23166;BME280;11751;42.700;24.170;2023-09-19T06:50:05;94336.00;;;17.32;nan
23166;BME280;11751;42.700;24.170;2023-09-19T06:52:31;94335.69;;;17.66;nan
23166;BME280;11751;42.700;24.170;2023-09-19T06:54:58;94345.78;;;17.88;nan
23166;BME280;11751;42.700;24.170;2023-09-19T06:57:23;94346.81;;;17.93;nan
23166;BME280;11751;42.700;24.170;2023-09-19T06:59:50;94342.88;;;18.26;nan
23166;BME280;11751;42.700;24.170;2023-09-19T07:02:15;94341.59;;;18.48;nan
23166;BME280;11751;42.700;24.170;2023-09-19T07:04:40;94346.84;;;18.82;nan
23166;BME280;11751;42.700;24.170;2023-09-19T07:07:06;94347.25;;;19.08;nan
23166;BME280;11751;42.700;24.170;2023-09-19T07:09:34;94342.53;;;19.43;nan
23166;BME280;11751;42.700;24.170;2023-09-19T07:12:00;94331.75;;;19.51;nan
23166;BME280;11751;42.700;24.170;2023-09-19T07:14:25;94339.13;;;19.77;nan
23166;BME280;11751;42.700;24.170;2023-09-19T07:16:51;94339.72;;;19.96;nan
23166;BME280;11751;42.700;24.170;2023-09-19T07:19:17;94337.19;;;20.23;nan
23166;BME280;11751;42.700;24.170;2023-09-19T07:21:42;94339.06;;;20.42;nan
23166;BME280;11751;42.700;24.170;2023-09-19T07:24:08;94342.44;;;20.50;nan
23166;BME280;11751;42.700;24.170;2023-09-19T07:26:34;94338.59;;;20.68;nan
23166;BME280;11751;42.700;24.170;2023-09-19T07:28:59;94339.25;;;20.89;nan
23166;BME280;11751;42.700;24.170;2023-09-19T07:31:27;94340.22;;;21.05;nan
23166;BME280;11751;42.700;24.170;2023-09-19T07:33:53;94333.78;;;21.05;nan
23166;BME280;11751;42.700;24.170;2023-09-19T07:36:19;94334.72;;;21.32;nan
23166;BME280;11751;42.700;24.170;2023-09-19T07:38:45;94337.44;;;21.42;nan
23166;BME280;11751;42.700;24.170;2023-09-19T07:41:10;94336.97;;;21.81;nan
23166;BME280;11751;42.700;24.170;2023-09-19T07:43:36;94327.72;;;21.94;nan
23166;BME280;11751;42.700;24.170;2023-09-19T07:46:05;94332.31;;;21.99;nan
23166;BME280;11751;42.700;24.170;2023-09-19T07:48:33;94329.50;;;22.13;nan
23166;BME280;11751;42.700;24.170;2023-09-19T07:51:03;94328.00;;;22.12;nan
23166;BME280;11751;42.700;24.170;2023-09-19T07:53:29;94326.63;;;22.38;nan
23166;BME280;11751;42.700;24.170;2023-09-19T07:56:05;94326.75;;;22.15;nan
23166;BME280;11751;42.700;24.170;2023-09-19T07:58:30;94318.97;;;22.29;nan
23166;BME280;11751;42.700;24.170;2023-09-19T08:01:04;94324.75;;;22.17;nan
23166;BME280;11751;42.700;24.170;2023-09-19T08:03:32;94332.59;;;22.42;nan
23166;BME280;11751;42.700;24.170;2023-09-19T08:05:57;94324.56;;;22.51;nan
23166;BME280;11751;42.700;24.170;2023-09-19T08:08:23;94307.81;;;22.33;nan
23166;BME280;11751;42.700;24.170;2023-09-19T08:10:55;94312.94;;;22.23;nan
23166;BME280;11751;42.700;24.170;2023-09-19T08:13:25;94306.66;;;22.38;nan
23166;BME280;11751;42.700;24.170;2023-09-19T08:15:52;94311.91;;;22.54;nan
23166;BME280;11751;42.700;24.170;2023-09-19T08:18:20;94308.53;;;22.71;nan
23166;BME280;11751;42.700;24.170;2023-09-19T08:20:52;94298.72;;;22.74;nan
23166;BME280;11751;42.700;24.170;2023-09-19T08:23:17;94301.31;;;22.43;nan
23166;BME280;11751;42.700;24.170;2023-09-19T08:25:47;94299.88;;;22.69;nan
23166;BME280;11751;42.700;24.170;2023-09-19T08:28:12;94294.97;;;22.58;nan
23166;BME280;11751;42.700;24.170;2023-09-19T08:30:42;94299.56;;;22.90;nan
23166;BME280;11751;42.700;24.170;2023-09-19T08:33:08;94296.09;;;23.19;nan
23166;BME280;11751;42.700;24.170;2023-09-19T08:35:33;94299.06;;;23.34;nan
23166;BME280;11751;42.700;24.170;2023-09-19T08:37:59;94309.22;;;23.10;nan
23166;BME280;11751;42.700;24.170;2023-09-19T08:40:32;94298.63;;;23.13;nan
23166;BME280;11751;42.700;24.170;2023-09-19T08:43:01;94297.75;;;23.37;nan
23166;BME280;11751;42.700;24.170;2023-09-19T08:45:27;94294.69;;;23.46;nan
23166;BME280;11751;42.700;24.170;2023-09-19T08:53:18;94290.16;;;23.28;nan
23166;BME280;11751;42.700;24.170;2023-09-19T08:55:46;94282.00;;;23.49;nan
23166;BME280;11751;42.700;24.170;2023-09-19T08:58:16;94290.75;;;23.53;nan
23166;BME280;11751;42.700;24.170;2023-09-19T09:00:46;94292.63;;;23.76;nan
23166;BME280;11751;42.700;24.170;2023-09-19T09:03:14;94288.28;;;23.75;nan
23166;BME280;11751;42.700;24.170;2023-09-19T09:05:45;94284.59;;;24.01;nan
23166;BME280;11751;42.700;24.170;2023-09-19T09:08:12;94281.66;;;24.15;nan
23166;BME280;11751;42.700;24.170;2023-09-19T09:10:38;94284.56;;;24.30;nan
23166;BME280;11751;42.700;24.170;2023-09-19T09:13:06;94287.63;;;24.34;nan
23166;BME280;11751;42.700;24.170;2023-09-19T09:15:35;94283.19;;;24.31;nan
23166;BME280;11751;42.700;24.170;2023-09-19T09:18:02;94274.91;;;24.52;nan
23166;BME280;11751;42.700;24.170;2023-09-19T09:20:28;94273.16;;;24.76;nan
23166;BME280;11751;42.700;24.170;2023-09-19T09:22:55;94265.50;;;24.81;nan
23166;BME280;11751;42.700;24.170;2023-09-19T09:25:22;94268.13;;;25.07;nan
23166;BME280;11751;42.700;24.170;2023-09-19T09:28:00;94273.06;;;24.90;nan
23166;BME280;11751;42.700;24.170;2023-09-19T09:30:34;94262.38;;;24.90;nan
23166;BME280;11751;42.700;24.170;2023-09-19T09:33:14;94258.84;;;24.76;nan
23166;BME280;11751;42.700;24.170;2023-09-19T09:35:56;94262.53;;;24.94;nan
23166;BME280;11751;42.700;24.170;2023-09-19T09:38:26;94256.25;;;24.82;nan
23166;BME280;11751;42.700;24.170;2023-09-19T09:40:54;94254.97;;;24.85;nan
23166;BME280;11751;42.700;24.170;2023-09-19T09:46:22;94247.19;;;24.72;nan
23166;BME280;11751;42.700;24.170;2023-09-19T09:51:42;94248.06;;;24.59;nan
23166;BME280;11751;42.700;24.170;2023-09-19T09:54:13;94251.75;;;24.62;nan
23166;BME280;11751;42.700;24.170;2023-09-19T09:56:55;94253.94;;;24.79;nan
23166;BME280;11751;42.700;24.170;2023-09-19T10:02:16;94252.91;;;24.88;nan
23166;BME280;11751;42.700;24.170;2023-09-19T10:04:57;94249.81;;;24.66;nan
23166;BME280;11751;42.700;24.170;2023-09-19T10:07:41;94241.91;;;24.82;nan
23166;BME280;11751;42.700;24.170;2023-09-19T10:10:14;94244.03;;;24.97;nan
23166;BME280;11751;42.700;24.170;2023-09-19T10:12:43;94245.88;;;25.21;nan
23166;BME280;11751;42.700;24.170;2023-09-19T10:15:10;94239.91;;;25.33;nan
23166;BME280;11751;42.700;24.170;2023-09-19T10:17:36;94246.97;;;25.30;nan
23166;BME280;11751;42.700;24.170;2023-09-19T10:20:02;94238.09;;;25.24;nan
23166;BME280;11751;42.700;24.170;2023-09-19T10:22:36;94222.34;;;25.58;nan
23166;BME280;11751;42.700;24.170;2023-09-19T10:25:04;94231.06;;;25.60;nan
23166;BME280;11751;42.700;24.170;2023-09-19T10:27:32;94231.97;;;25.31;nan
23166;BME280;11751;42.700;24.170;2023-09-19T10:30:05;94228.88;;;25.43;nan
23166;BME280;11751;42.700;24.170;2023-09-19T10:32:32;94222.94;;;25.06;nan
23166;BME280;11751;42.700;24.170;2023-09-19T10:35:01;94224.00;;;24.35;nan
23166;BME280;11751;42.700;24.170;2023-09-19T10:37:27;94222.63;;;24.36;nan
23166;BME280;11751;42.700;24.170;2023-09-19T10:39:56;94220.13;;;24.75;nan
23166;BME280;11751;42.700;24.170;2023-09-19T10:42:23;94209.13;;;24.85;nan
23166;BME280;11751;42.700;24.170;2023-09-19T10:44:54;94218.06;;;24.93;nan
23166;BME280;11751;42.700;24.170;2023-09-19T10:47:20;94215.00;;;25.05;nan
23166;BME280;11751;42.700;24.170;2023-09-19T10:49:49;94209.56;;;25.43;nan
23166;BME280;11751;42.700;24.170;2023-09-19T10:52:18;94204.34;;;25.22;nan
23166;BME280;11751;42.700;24.170;2023-09-19T10:54:50;94197.28;;;24.93;nan
23166;BME280;11751;42.700;24.170;2023-09-19T10:57:20;94200.41;;;25.14;nan
23166;BME280;11751;42.700;24.170;2023-09-19T11:00:08;94198.28;;;25.32;nan
23166;BME280;11751;42.700;24.170;2023-09-19T11:05:39;94182.00;;;25.36;nan
23166;BME280;11751;42.700;24.170;2023-09-19T11:08:06;94189.25;;;25.72;nan
23166;BME280;11751;42.700;24.170;2023-09-19T11:10:49;94181.00;;;25.98;nan
23166;BME280;11751;42.700;24.170;2023-09-19T11:13:29;94178.72;;;26.31;nan
23166;BME280;11751;42.700;24.170;2023-09-19T11:26:47;94173.84;;;26.35;nan
23166;BME280;11751;42.700;24.170;2023-09-19T11:29:27;94169.25;;;26.46;nan
23166;BME280;11751;42.700;24.170;2023-09-19T11:31:53;94174.69;;;26.20;nan
23166;BME280;11751;42.700;24.170;2023-09-19T11:37:02;94157.16;;;26.12;nan
23166;BME280;11751;42.700;24.170;2023-09-19T11:39:30;94152.41;;;26.19;nan
23166;BME280;11751;42.700;24.170;2023-09-19T11:41:56;94148.41;;;26.45;nan
23166;BME280;11751;42.700;24.170;2023-09-19T11:44:32;94143.41;;;26.65;nan
23166;BME280;11751;42.700;24.170;2023-09-19T11:47:04;94140.44;;;26.83;nan
23166;BME280;11751;42.700;24.170;2023-09-19T11:49:32;94135.16;;;26.75;nan
23166;BME280;11751;42.700;24.170;2023-09-19T11:52:01;94140.75;;;26.71;nan
23166;BME280;11751;42.700;24.170;2023-09-19T11:54:31;94128.41;;;26.47;nan
23166;BME280;11751;42.700;24.170;2023-09-19T11:56:57;94131.84;;;26.63;nan
23166;BME280;11751;42.700;24.170;2023-09-19T11:59:25;94126.84;;;26.07;nan
23166;BME280;11751;42.700;24.170;2023-09-19T12:01:55;94124.94;;;26.14;nan
23166;BME280;11751;42.700;24.170;2023-09-19T12:04:43;94123.47;;;26.13;nan
23166;BME280;11751;42.700;24.170;2023-09-19T12:07:12;94127.34;;;26.58;nan
23166;BME280;11751;42.700;24.170;2023-09-19T12:09:48;94118.94;;;26.25;nan
23166;BME280;11751;42.700;24.170;2023-09-19T12:12:19;94118.69;;;26.56;nan
23166;BME280;11751;42.700;24.170;2023-09-19T12:14:49;94118.75;;;26.99;nan
23166;BME280;11751;42.700;24.170;2023-09-19T12:17:14;94113.25;;;27.05;nan
23166;BME280;11751;42.700;24.170;2023-09-19T12:19:50;94103.84;;;27.24;nan
23166;BME280;11751;42.700;24.170;2023-09-19T12:22:16;94100.16;;;27.43;nan
23166;BME280;11751;42.700;24.170;2023-09-19T12:24:43;94097.44;;;26.65;nan
23166;BME280;11751;42.700;24.170;2023-09-19T12:27:09;94090.09;;;27.01;nan
23166;BME280;11751;42.700;24.170;2023-09-19T12:29:47;94086.19;;;27.12;nan
23166;BME280;11751;42.700;24.170;2023-09-19T12:32:36;94084.81;;;27.58;nan
23166;BME280;11751;42.700;24.170;2023-09-19T12:35:01;94085.19;;;27.46;nan
23166;BME280;11751;42.700;24.170;2023-09-19T12:37:32;94078.34;;;27.57;nan
23166;BME280;11751;42.700;24.170;2023-09-19T12:40:08;94068.75;;;27.93;nan
23166;BME280;11751;42.700;24.170;2023-09-19T12:42:46;94075.09;;;28.13;nan
23166;BME280;11751;42.700;24.170;2023-09-19T12:45:12;94068.09;;;28.20;nan
23166;BME280;11751;42.700;24.170;2023-09-19T12:47:40;94071.25;;;28.28;nan
23166;BME280;11751;42.700;24.170;2023-09-19T12:50:13;94060.75;;;28.39;nan
23166;BME280;11751;42.700;24.170;2023-09-19T12:52:40;94062.06;;;28.59;nan
23166;BME280;11751;42.700;24.170;2023-09-19T12:55:06;94059.03;;;28.30;nan
23166;BME280;11751;42.700;24.170;2023-09-19T12:57:36;94062.50;;;28.24;nan
23166;BME280;11751;42.700;24.170;2023-09-19T13:00:04;94055.84;;;27.96;nan
23166;BME280;11751;42.700;24.170;2023-09-19T13:02:31;94061.25;;;28.08;nan
23166;BME280;11751;42.700;24.170;2023-09-19T13:04:57;94060.88;;;28.19;nan
23166;BME280;11751;42.700;24.170;2023-09-19T13:07:44;94062.00;;;27.85;nan
23166;BME280;11751;42.700;24.170;2023-09-19T13:10:12;94047.44;;;27.79;nan
23166;BME280;11751;42.700;24.170;2023-09-19T13:12:42;94040.34;;;28.07;nan
23166;BME280;11751;42.700;24.170;2023-09-19T13:15:13;94048.88;;;28.03;nan
23166;BME280;11751;42.700;24.170;2023-09-19T13:17:44;94043.84;;;28.27;nan
23166;BME280;11751;42.700;24.170;2023-09-19T13:20:30;94051.09;;;28.28;nan
23166;BME280;11751;42.700;24.170;2023-09-19T13:22:59;94050.59;;;28.12;nan
23166;BME280;11751;42.700;24.170;2023-09-19T13:25:35;94042.28;;;27.99;nan
23166;BME280;11751;42.700;24.170;2023-09-19T13:28:01;94038.88;;;28.06;nan
23166;BME280;11751;42.700;24.170;2023-09-19T13:30:29;94038.56;;;28.20;nan
23166;BME280;11751;42.700;24.170;2023-09-19T13:33:07;94038.66;;;28.22;nan
23166;BME280;11751;42.700;24.170;2023-09-19T13:35:34;94029.50;;;28.29;nan
23166;BME280;11751;42.700;24.170;2023-09-19T13:38:01;94032.78;;;28.20;nan
23166;BME280;11751;42.700;24.170;2023-09-19T13:40:27;94033.94;;;28.09;nan
23166;BME280;11751;42.700;24.170;2023-09-19T13:42:56;94036.94;;;27.89;nan
23166;BME280;11751;42.700;24.170;2023-09-19T13:45:22;94026.72;;;27.84;nan
23166;BME280;11751;42.700;24.170;2023-09-19T13:47:50;94029.16;;;27.94;nan
23166;BME280;11751;42.700;24.170;2023-09-19T13:50:15;94028.25;;;27.87;nan
23166;BME280;11751;42.700;24.170;2023-09-19T13:52:42;94033.59;;;27.74;nan
23166;BME280;11751;42.700;24.170;2023-09-19T13:55:08;94037.47;;;27.61;nan
23166;BME280;11751;42.700;24.170;2023-09-19T13:57:33;94033.28;;;27.87;nan
23166;BME280;11751;42.700;24.170;2023-09-19T13:59:59;94037.97;;;27.76;nan
23166;BME280;11751;42.700;24.170;2023-09-19T14:02:24;94035.47;;;27.88;nan